createdAt,value
2019-05-17T00:01:47.686Z,93692.44
2019-05-17T00:04:16.474Z,93692.44
2019-05-17T00:06:42.764Z,93682.20
2019-05-17T00:09:09.317Z,93679.14
2019-05-17T00:11:36.762Z,93679.16
2019-05-17T00:14:03.484Z,93675.27
2019-05-17T00:16:30.007Z,93677.81
2019-05-17T00:18:56.877Z,93664.53
2019-05-17T00:21:23.769Z,93665.33
2019-05-17T00:23:50.388Z,93658.05
2019-05-17T00:26:16.937Z,93661.73
2019-05-17T00:28:43.477Z,93662.02
2019-05-17T00:31:10.079Z,93660.51
2019-05-17T00:33:36.818Z,93657.52
2019-05-17T00:36:03.572Z,93655.19
2019-05-17T00:38:30.182Z,93645.66
2019-05-17T00:40:56.752Z,93645.55
2019-05-17T00:43:23.283Z,93642.70
2019-05-17T00:45:49.820Z,93636.13
2019-05-17T00:48:17.203Z,93633.47
2019-05-17T00:50:43.889Z,93632.55
2019-05-17T00:53:10.416Z,93626.00
2019-05-17T00:55:37.013Z,93623.69
2019-05-17T00:58:03.814Z,93624.50
2019-05-17T01:00:30.443Z,93624.39
2019-05-17T01:02:57.425Z,93612.44
2019-05-17T01:05:24.313Z,93620.97
2019-05-17T01:07:50.845Z,93614.42
2019-05-17T01:10:17.504Z,93619.92
2019-05-17T01:12:44.049Z,93609.70
2019-05-17T01:15:11.899Z,93607.25
2019-05-17T01:17:38.424Z,93602.12
2019-05-17T01:20:08.804Z,93602.45
2019-05-17T01:22:36.739Z,93607.02
2019-05-17T01:25:06.491Z,93601.27
2019-05-17T01:27:32.999Z,93606.95
2019-05-17T01:29:59.551Z,93593.06
2019-05-17T01:32:26.677Z,93597.86
2019-05-17T01:34:53.333Z,93601.94
2019-05-17T01:37:19.945Z,93591.34
2019-05-17T01:39:46.865Z,93596.23
2019-05-17T01:42:13.512Z,93591.72
2019-05-17T01:44:40.332Z,93592.11
2019-05-17T01:47:07.434Z,93594.19
2019-05-17T01:49:36.337Z,93590.20
2019-05-17T01:52:02.852Z,93593.14
2019-05-17T01:54:29.390Z,93586.77
2019-05-17T01:56:56.666Z,93590.55
2019-05-17T01:59:23.644Z,93592.51
2019-05-17T02:01:52.121Z,93595.80
2019-05-17T02:04:18.653Z,93585.48
2019-05-17T02:06:46.699Z,93586.75
2019-05-17T02:09:13.534Z,93582.29
2019-05-17T02:11:40.186Z,93584.06
2019-05-17T02:14:07.066Z,93580.87
2019-05-17T02:16:33.696Z,93576.59
2019-05-17T02:19:00.254Z,93586.39
2019-05-17T02:21:27.476Z,93573.09
2019-05-17T02:23:54.338Z,93575.11
2019-05-17T02:26:20.887Z,93573.60
2019-05-17T02:28:47.476Z,93572.45
2019-05-17T02:31:14.205Z,93570.41
2019-05-17T02:33:43.090Z,93568.81
2019-05-17T02:36:09.178Z,93563.68
2019-05-17T02:38:35.703Z,93569.26
2019-05-17T02:41:03.447Z,93571.49
2019-05-17T02:43:33.134Z,93572.25
2019-05-17T02:45:58.641Z,93568.32
2019-05-17T02:48:25.196Z,93568.14
2019-05-17T02:50:53.156Z,93566.39
2019-05-17T02:53:23.006Z,93555.02
2019-05-17T02:55:48.559Z,93555.23
2019-05-17T02:58:15.140Z,93560.16
2019-05-17T03:00:44.342Z,93554.73
2019-05-17T03:03:13.221Z,93559.64
2019-05-17T03:05:38.685Z,93556.98
2019-05-17T03:08:05.223Z,93555.84
2019-05-17T03:10:33.515Z,93553.91
2019-05-17T03:13:03.631Z,93556.86
2019-05-17T03:15:32.174Z,93552.09
2019-05-17T03:17:57.867Z,93549.53
2019-05-17T03:20:24.401Z,93546.58
2019-05-17T03:22:52.525Z,93550.59
2019-05-17T03:25:19.384Z,93548.98
2019-05-17T03:27:45.933Z,93545.01
2019-05-17T03:30:17.153Z,93553.47
2019-05-17T03:32:47.334Z,93558.98
2019-05-17T03:35:16.763Z,93557.27
2019-05-17T03:37:39.223Z,93549.31
2019-05-17T03:40:23.316Z,93548.47
2019-05-17T03:42:35.066Z,93544.02
2019-05-17T03:45:02.992Z,93543.38
2019-05-17T03:47:33.174Z,93539.93
2019-05-17T03:49:58.451Z,93549.45
2019-05-17T03:52:24.971Z,93547.14
2019-05-17T03:54:53.214Z,93549.70
2019-05-17T03:57:23.622Z,93543.46
2019-05-17T03:59:48.396Z,93544.03
2019-05-17T04:02:15.044Z,93550.00
2019-05-17T04:04:42.866Z,93546.72
2019-05-17T04:07:12.556Z,93544.06
2019-05-17T04:09:38.096Z,93546.66
2019-05-17T04:12:04.650Z,93555.14
2019-05-17T04:14:33.588Z,93556.25
2019-05-17T04:17:02.872Z,93552.87
2019-05-17T04:19:28.221Z,93545.64
2019-05-17T04:21:54.932Z,93548.75
2019-05-17T04:24:23.084Z,93551.53
2019-05-17T04:26:52.440Z,93550.84
2019-05-17T04:29:18.324Z,93546.77
2019-05-17T04:31:44.903Z,93539.86
2019-05-17T04:34:13.529Z,93544.45
2019-05-17T04:36:39.898Z,93546.70
2019-05-17T04:39:06.792Z,93549.51
2019-05-17T04:41:45.072Z,93544.83
2019-05-17T04:44:02.704Z,93550.05
2019-05-17T04:46:32.422Z,93545.98
2019-05-17T04:48:57.957Z,93544.56
2019-05-17T04:51:24.491Z,93548.80
2019-05-17T04:53:52.965Z,93540.36
2019-05-17T04:56:22.517Z,93538.08
2019-05-17T04:58:50.201Z,93537.11
2019-05-17T05:01:16.479Z,93538.56
2019-05-17T05:03:43.310Z,93540.31
2019-05-17T05:06:13.065Z,93538.58
2019-05-17T05:08:38.277Z,93543.11
2019-05-17T05:11:04.797Z,93535.14
2019-05-17T05:13:33.408Z,93536.17
2019-05-17T05:16:02.734Z,93528.73
2019-05-17T05:18:28.403Z,93533.41
2019-05-17T05:20:54.877Z,93535.09
2019-05-17T05:23:23.808Z,93535.49
2019-05-17T05:25:52.105Z,93533.25
2019-05-17T05:28:18.871Z,93535.31
2019-05-17T05:30:45.516Z,93528.66
2019-05-17T05:33:12.939Z,93530.10
2019-05-17T05:35:42.201Z,93525.48
2019-05-17T05:38:08.164Z,93535.71
2019-05-17T05:40:34.750Z,93524.07
2019-05-17T05:43:02.293Z,93524.17
2019-05-17T05:45:29.075Z,93521.70
2019-05-17T05:47:55.588Z,93524.59
2019-05-17T05:50:22.202Z,93517.81
2019-05-17T05:52:48.742Z,93528.78
2019-05-17T05:55:16.294Z,93523.56
2019-05-17T05:57:42.829Z,93518.20
2019-05-17T06:00:13.088Z,93515.57
2019-05-17T06:02:41.857Z,93521.72
2019-05-17T06:05:08.689Z,93515.45
2019-05-17T06:07:35.394Z,93512.89
2019-05-17T06:10:02.949Z,93512.41
2019-05-17T06:12:32.096Z,93507.34
2019-05-17T06:14:57.932Z,93508.63
2019-05-17T06:17:24.470Z,93513.30
2019-05-17T06:19:51.749Z,93514.92
2019-05-17T06:22:18.676Z,93508.16
2019-05-17T06:24:45.293Z,93514.50
2019-05-17T06:27:12.338Z,93506.83
2019-05-17T06:29:41.369Z,93506.87
2019-05-17T06:32:07.442Z,93518.73
2019-05-17T06:34:34.049Z,93509.78
2019-05-17T06:37:02.231Z,93514.83
2019-05-17T06:39:29.040Z,93520.86
2019-05-17T06:41:55.540Z,93512.70
2019-05-17T06:44:22.131Z,93512.23
2019-05-17T06:46:48.662Z,93517.86
2019-05-17T06:49:15.197Z,93512.04
2019-05-17T06:51:42.696Z,93512.41
2019-05-17T06:54:11.848Z,93508.63
2019-05-17T06:56:37.855Z,93504.86
2019-05-17T06:59:04.392Z,93506.47
2019-05-17T07:01:30.934Z,93501.90
2019-05-17T07:03:57.459Z,93498.94
2019-05-17T07:06:25.942Z,93492.02
2019-05-17T07:08:52.473Z,93496.41
2019-05-17T07:11:20.995Z,93493.59
2019-05-17T07:13:49.503Z,93489.03
2019-05-17T07:16:15.889Z,93494.41
2019-05-17T07:18:42.427Z,93491.48
2019-05-17T07:21:10.050Z,93485.70
2019-05-17T07:23:36.711Z,93489.09
2019-05-17T07:26:03.352Z,93486.09
2019-05-17T07:28:30.361Z,93487.98
2019-05-17T07:30:59.453Z,93484.21
2019-05-17T07:33:25.387Z,93490.86
2019-05-17T07:35:51.923Z,93483.45
2019-05-17T07:38:19.983Z,93487.38
2019-05-17T07:40:46.597Z,93493.57
2019-05-17T07:43:14.862Z,93485.56
2019-05-17T07:45:41.601Z,93484.31
2019-05-17T07:48:13.852Z,93482.93
2019-05-17T07:50:40.441Z,93476.72
2019-05-17T07:53:06.982Z,93475.84
2019-05-17T07:55:33.513Z,93477.96
2019-05-17T07:58:00.294Z,93476.34
2019-05-17T08:00:26.927Z,93475.94
2019-05-17T08:02:53.465Z,93468.00
2019-05-17T08:05:21.397Z,93470.52
2019-05-17T08:07:49.996Z,93463.41
2019-05-17T08:10:20.201Z,93454.22
2019-05-17T08:12:46.144Z,93456.30
2019-05-17T08:15:12.966Z,93454.20
2019-05-17T08:17:39.822Z,93454.03
2019-05-17T08:20:10.042Z,93447.52
2019-05-17T08:22:39.837Z,93450.54
2019-05-17T08:25:09.870Z,93449.50
2019-05-17T08:27:36.169Z,93445.38
2019-05-17T08:30:05.089Z,93448.47
2019-05-17T08:32:31.770Z,93441.21
2019-05-17T08:35:00.399Z,93441.80
2019-05-17T08:37:26.835Z,93448.44
2019-05-17T08:39:53.364Z,93445.73
2019-05-17T08:42:20.441Z,93441.48
2019-05-17T08:44:47.158Z,93436.59
2019-05-17T08:47:13.708Z,93437.22
2019-05-17T08:49:40.457Z,93441.63
2019-05-17T08:52:07.071Z,93433.09
2019-05-17T08:54:33.594Z,93431.61
2019-05-17T08:57:00.651Z,93427.16
2019-05-17T08:59:29.562Z,93435.61
2019-05-17T09:01:55.954Z,93436.11
2019-05-17T09:04:23.635Z,93428.63
2019-05-17T09:06:50.526Z,93428.67
2019-05-17T09:09:17.215Z,93429.92
2019-05-17T09:11:43.752Z,93428.05
2019-05-17T09:14:10.621Z,93429.97
2019-05-17T09:16:39.914Z,93426.30
2019-05-17T09:19:05.985Z,93419.95
2019-05-17T09:21:32.509Z,93416.45
2019-05-17T09:23:59.715Z,93422.97
2019-05-17T09:26:26.468Z,93425.19
2019-05-17T09:28:53.019Z,93421.00
2019-05-17T09:31:20.383Z,93411.13
2019-05-17T09:33:49.561Z,93416.44
2019-05-17T09:36:15.552Z,93416.27
2019-05-17T09:38:42.095Z,93417.53
2019-05-17T09:41:09.328Z,93419.91
2019-05-17T09:43:36.061Z,93406.56
2019-05-17T09:46:02.997Z,93412.84
2019-05-17T09:48:30.662Z,93407.95
2019-05-17T09:50:59.753Z,93415.72
2019-05-17T09:53:27.358Z,93410.39
2019-05-17T09:55:53.884Z,93406.15
2019-05-17T09:58:21.637Z,93403.23
2019-05-17T10:00:49.499Z,93402.80
2019-05-17T10:03:16.274Z,93404.17
2019-05-17T10:05:44.102Z,93405.78
2019-05-17T10:08:11.106Z,93403.92
2019-05-17T10:10:39.994Z,93411.41
2019-05-17T10:13:06.168Z,93408.71
2019-05-17T10:15:32.696Z,93406.41
2019-05-17T10:18:00.556Z,93396.66
2019-05-17T10:20:29.269Z,93395.35
2019-05-17T10:22:55.884Z,93393.17
2019-05-17T10:25:22.427Z,93391.59
2019-05-17T10:27:49.812Z,93398.08
2019-05-17T10:30:16.644Z,93393.95
2019-05-17T10:32:43.254Z,93389.28
2019-05-17T10:35:10.191Z,93395.02
2019-05-17T10:37:36.704Z,93393.16
2019-05-17T10:40:06.346Z,93383.93
2019-05-17T10:42:33.898Z,93392.39
2019-05-17T10:45:00.432Z,93391.98
2019-05-17T10:47:27.167Z,93387.66
2019-05-17T10:49:53.710Z,93387.52
2019-05-17T10:52:20.469Z,93383.99
2019-05-17T10:54:46.999Z,93379.94
2019-05-17T10:57:13.539Z,93379.50
2019-05-17T10:59:40.083Z,93378.85
2019-05-17T11:02:06.791Z,93383.70
2019-05-17T11:04:33.363Z,93375.86
2019-05-17T11:06:59.912Z,93375.91
2019-05-17T11:09:26.523Z,93382.13
2019-05-17T11:11:53.058Z,93373.49
2019-05-17T11:14:19.597Z,93369.95
2019-05-17T11:16:46.130Z,93363.97
2019-05-17T11:19:12.664Z,93373.98
2019-05-17T11:21:39.298Z,93367.43
2019-05-17T11:24:06.038Z,93364.58
2019-05-17T11:26:32.587Z,93371.59
2019-05-17T11:28:59.114Z,93363.63
2019-05-17T11:31:25.665Z,93365.13
2019-05-17T11:33:52.198Z,93364.91
2019-05-17T11:36:18.742Z,93365.16
2019-05-17T11:38:45.263Z,93369.64
2019-05-17T11:41:21.226Z,93373.41
2019-05-17T11:43:40.256Z,93368.31
2019-05-17T11:46:06.787Z,93374.94
2019-05-17T11:48:33.310Z,93366.31
2019-05-17T11:50:59.957Z,93367.25
2019-05-17T11:53:26.494Z,93362.14
2019-05-17T11:55:53.017Z,93363.50
2019-05-17T11:58:19.553Z,93370.70
2019-05-17T12:00:46.083Z,93364.22
2019-05-17T12:03:12.616Z,93360.84
2019-05-17T12:05:39.149Z,93361.08
2019-05-17T12:08:08.671Z,93358.83
2019-05-17T12:10:34.252Z,93352.58
2019-05-17T12:13:00.887Z,93358.06
2019-05-17T12:15:42.215Z,93363.22
2019-05-17T12:17:56.072Z,93356.20
2019-05-17T12:20:22.712Z,93359.69
2019-05-17T12:22:49.253Z,93353.91
2019-05-17T12:25:17.790Z,93355.34
2019-05-17T12:27:44.423Z,93353.23
2019-05-17T12:30:11.304Z,93358.62
2019-05-17T12:32:37.917Z,93361.60
2019-05-17T12:35:05.254Z,93361.06
2019-05-17T12:37:31.789Z,93366.98
2019-05-17T12:39:58.419Z,93365.06
2019-05-17T12:42:24.953Z,93363.77
2019-05-17T12:44:51.490Z,93369.20
2019-05-17T12:47:18.042Z,93365.11
2019-05-17T12:49:44.563Z,93359.11
2019-05-17T12:52:11.110Z,93354.91
2019-05-17T12:54:37.745Z,93356.36
2019-05-17T12:57:04.918Z,93347.41
2019-05-17T12:59:31.719Z,93352.44
2019-05-17T13:01:58.271Z,93353.55
2019-05-17T13:04:24.789Z,93350.64
2019-05-17T13:06:51.332Z,93356.95
2019-05-17T13:09:17.875Z,93352.38
2019-05-17T13:11:44.414Z,93353.24
2019-05-17T13:14:10.950Z,93351.60
2019-05-17T13:16:37.490Z,93350.80
2019-05-17T13:19:04.108Z,93358.56
2019-05-17T13:21:30.677Z,93363.06
2019-05-17T13:23:57.203Z,93366.77
2019-05-17T13:26:23.805Z,93363.56
2019-05-17T13:28:50.400Z,93366.29
2019-05-17T13:31:16.948Z,93361.78
2019-05-17T13:33:43.541Z,93362.89
2019-05-17T13:36:10.268Z,93360.79
2019-05-17T13:38:36.854Z,93359.36
2019-05-17T13:41:03.410Z,93361.18
2019-05-17T13:43:31.024Z,93360.87
2019-05-17T13:45:57.578Z,93356.81
2019-05-17T13:48:24.106Z,93359.18
2019-05-17T13:50:52.138Z,93360.80
2019-05-17T13:53:19.000Z,93363.20
2019-05-17T13:55:45.799Z,93364.75
2019-05-17T13:58:12.336Z,93370.44
2019-05-17T14:00:38.897Z,93365.27
2019-05-17T14:03:05.779Z,93363.92
2019-05-17T14:05:32.311Z,93371.92
2019-05-17T14:07:58.896Z,93374.77
2019-05-17T14:10:28.688Z,93375.80
2019-05-17T14:12:53.879Z,93375.85
2019-05-17T14:15:20.538Z,93387.45
2019-05-17T14:17:47.112Z,93392.34
2019-05-17T14:20:13.817Z,93406.47
2019-05-17T14:22:40.405Z,93412.72
2019-05-17T14:25:07.433Z,93407.34
2019-05-17T14:27:34.066Z,93411.52
2019-05-17T14:30:00.610Z,93406.44
2019-05-17T14:32:27.137Z,93404.12
2019-05-17T14:34:53.684Z,93409.80
2019-05-17T14:37:20.205Z,93409.31
2019-05-17T14:39:46.743Z,93402.67
2019-05-17T14:42:13.392Z,93395.17
2019-05-17T14:44:39.894Z,93397.03
2019-05-17T14:47:06.433Z,93392.87
2019-05-17T14:49:33.008Z,93392.28
2019-05-17T14:51:59.540Z,93396.08
2019-05-17T14:54:26.150Z,93392.00
2019-05-17T14:56:52.683Z,93400.00
2019-05-17T14:59:19.222Z,93400.05
2019-05-17T15:01:45.832Z,93401.98
2019-05-17T15:04:12.446Z,93406.77
2019-05-17T15:06:38.981Z,93399.65
2019-05-17T15:09:05.628Z,93396.70
2019-05-17T15:11:32.208Z,93396.18
2019-05-17T15:13:58.863Z,93396.97
2019-05-17T15:16:25.692Z,93395.35
2019-05-17T15:18:52.316Z,93390.88
2019-05-17T15:21:18.846Z,93395.46
2019-05-17T15:23:45.478Z,93403.70
2019-05-17T15:26:12.002Z,93405.30
2019-05-17T15:28:38.542Z,93408.69
2019-05-17T15:31:05.239Z,93402.67
2019-05-17T15:33:31.776Z,93409.77
2019-05-17T15:35:58.293Z,93406.92
2019-05-17T15:38:24.888Z,93412.61
2019-05-17T15:40:51.424Z,93409.64
2019-05-17T15:43:17.951Z,93406.56
2019-05-17T15:45:44.492Z,93406.74
2019-05-17T15:48:11.078Z,93400.01
2019-05-17T15:50:37.692Z,93400.63
2019-05-17T15:53:04.229Z,93393.03
2019-05-17T15:55:30.841Z,93393.75
2019-05-17T15:57:57.367Z,93387.55
2019-05-17T16:00:24.981Z,93387.90
2019-05-17T16:02:51.634Z,93374.27
2019-05-17T16:05:18.266Z,93377.41
2019-05-17T16:07:44.850Z,93373.29
2019-05-17T16:10:12.991Z,93371.84
2019-05-17T16:12:40.552Z,93372.83
2019-05-17T16:15:07.894Z,93368.67
2019-05-17T16:17:34.411Z,93369.59
2019-05-17T16:20:02.447Z,93364.65
2019-05-17T16:22:29.020Z,93373.73
2019-05-17T16:24:55.599Z,93374.38
2019-05-17T16:27:22.114Z,93366.37
2019-05-17T16:29:48.655Z,93366.87
2019-05-17T16:32:15.525Z,93365.99
2019-05-17T16:34:42.121Z,93364.21
2019-05-17T16:37:09.694Z,93363.14
2019-05-17T16:39:36.234Z,93358.23
2019-05-17T16:42:03.886Z,93358.33
2019-05-17T16:44:30.416Z,93359.94
2019-05-17T16:46:56.969Z,93354.30
2019-05-17T16:49:23.507Z,93354.30
2019-05-17T16:51:50.056Z,93350.27
2019-05-17T16:54:16.587Z,93350.67
2019-05-17T16:56:43.123Z,93351.80
2019-05-17T16:59:09.785Z,93342.53
2019-05-17T17:01:36.311Z,93348.39
2019-05-17T17:04:03.741Z,93338.36
2019-05-17T17:06:30.282Z,93335.42
2019-05-17T17:08:56.841Z,93339.98
2019-05-17T17:11:23.405Z,93343.81
2019-05-17T17:13:50.062Z,93336.77
2019-05-17T17:16:16.596Z,93337.89
2019-05-17T17:18:43.207Z,93341.88
2019-05-17T17:21:09.826Z,93340.52
2019-05-17T17:23:36.347Z,93337.84
2019-05-17T17:26:03.366Z,93346.09
2019-05-17T17:28:29.880Z,93347.23
2019-05-17T17:30:56.432Z,93347.55
2019-05-17T17:33:22.975Z,93351.56
2019-05-17T17:35:49.518Z,93353.56
2019-05-17T17:38:16.042Z,93356.16
2019-05-17T17:40:42.696Z,93351.43
2019-05-17T17:43:10.124Z,93358.86
2019-05-17T17:45:36.679Z,93353.93
2019-05-17T17:48:03.291Z,93360.50
2019-05-17T17:50:31.894Z,93361.47
2019-05-17T17:52:58.508Z,93357.45
2019-05-17T17:55:25.054Z,93362.78
2019-05-17T17:57:51.589Z,93355.08
2019-05-17T18:00:20.345Z,93358.52
2019-05-17T18:02:48.065Z,93358.18
2019-05-17T18:05:15.098Z,93355.69
2019-05-17T18:07:41.653Z,93354.69
2019-05-17T18:10:09.191Z,93351.50
2019-05-17T18:12:35.737Z,93360.72
2019-05-17T18:15:06.565Z,93358.98
2019-05-17T18:17:39.250Z,93361.16
2019-05-17T18:20:03.445Z,93361.25
2019-05-17T18:22:30.149Z,93361.52
2019-05-17T18:24:56.760Z,93362.46
2019-05-17T18:27:23.298Z,93366.26
2019-05-17T18:29:51.917Z,93363.45
2019-05-17T18:32:18.483Z,93365.06
2019-05-17T18:34:45.018Z,93368.49
2019-05-17T18:37:12.653Z,93373.29
2019-05-17T18:39:39.171Z,93366.20
2019-05-17T18:42:05.859Z,93369.41
2019-05-17T18:44:32.463Z,93374.78
2019-05-17T18:46:59.098Z,93370.09
2019-05-17T18:49:25.645Z,93374.17
2019-05-17T18:51:52.184Z,93376.70
2019-05-17T18:54:19.651Z,93377.91
2019-05-17T18:56:46.179Z,93374.58
2019-05-17T18:59:12.701Z,93374.95
2019-05-17T19:01:39.322Z,93376.17
2019-05-17T19:04:05.857Z,93376.63
2019-05-17T19:06:32.396Z,93382.61
2019-05-17T19:08:59.092Z,93381.17
2019-05-17T19:11:25.647Z,93382.66
2019-05-17T19:13:52.167Z,93383.19
2019-05-17T19:16:18.820Z,93377.68
2019-05-17T19:18:45.357Z,93382.16
2019-05-17T19:21:11.895Z,93387.61
2019-05-17T19:23:38.423Z,93387.11
2019-05-17T19:26:05.085Z,93391.93
2019-05-17T19:28:31.616Z,93394.30
2019-05-17T19:30:58.488Z,93403.55
2019-05-17T19:33:25.054Z,93404.36
2019-05-17T19:35:51.599Z,93403.29
2019-05-17T19:38:18.235Z,93404.48
2019-05-17T19:40:44.798Z,93410.23
2019-05-17T19:43:11.325Z,93410.94
2019-05-17T19:45:37.861Z,93417.91
2019-05-17T19:48:04.421Z,93418.71
2019-05-17T19:50:31.031Z,93423.18
2019-05-17T19:52:57.569Z,93422.13
2019-05-17T19:55:24.095Z,93419.52
2019-05-17T19:57:50.628Z,93426.20
2019-05-17T20:00:18.158Z,93416.70
2019-05-17T20:02:45.095Z,93423.73
2019-05-17T20:05:11.894Z,93417.27
2019-05-17T20:07:39.470Z,93417.16
2019-05-17T20:10:08.934Z,93420.86
2019-05-17T20:12:35.469Z,93425.19
2019-05-17T20:15:16.900Z,93432.47
2019-05-17T20:17:37.550Z,93432.95
2019-05-17T20:20:05.398Z,93436.08
2019-05-17T20:22:33.095Z,93443.01
2019-05-17T20:24:59.902Z,93440.31
2019-05-17T20:27:26.469Z,93443.02
2019-05-17T20:29:53.007Z,93441.86
2019-05-17T20:32:19.552Z,93436.72
2019-05-17T20:34:46.082Z,93441.41
2019-05-17T20:37:12.624Z,93440.17
2019-05-17T20:39:39.160Z,93441.69
2019-05-17T20:42:05.695Z,93439.92
2019-05-17T20:44:32.221Z,93442.88
2019-05-17T20:46:58.825Z,93437.08
2019-05-17T20:49:26.401Z,93444.67
2019-05-17T20:51:53.153Z,93441.19
2019-05-17T20:54:19.831Z,93446.61
2019-05-17T20:56:46.379Z,93445.41
2019-05-17T20:59:14.052Z,93439.05
2019-05-17T21:01:40.627Z,93444.32
2019-05-17T21:04:07.171Z,93448.23
2019-05-17T21:06:33.695Z,93446.96
2019-05-17T21:09:00.236Z,93440.95
2019-05-17T21:11:26.760Z,93441.83
2019-05-17T21:13:53.404Z,93443.69
2019-05-17T21:16:19.927Z,93442.59
2019-05-17T21:18:46.495Z,93441.02
2019-05-17T21:21:13.011Z,93440.48
2019-05-17T21:23:39.614Z,93438.06
2019-05-17T21:26:08.191Z,93440.13
2019-05-17T21:28:34.726Z,93433.09
2019-05-17T21:31:01.268Z,93439.50
2019-05-17T21:33:27.906Z,93435.31
2019-05-17T21:35:54.433Z,93435.53
2019-05-17T21:38:20.981Z,93438.41
2019-05-17T21:40:47.655Z,93438.41
2019-05-17T21:43:14.193Z,93443.16
2019-05-17T21:45:40.772Z,93448.66
2019-05-17T21:48:07.362Z,93446.36
2019-05-17T21:50:33.871Z,93448.23
2019-05-17T21:53:00.412Z,93443.30
2019-05-17T21:55:28.976Z,93440.70
2019-05-17T21:57:55.506Z,93442.11
2019-05-17T22:00:50.704Z,93440.45
2019-05-17T22:03:17.341Z,93438.37
2019-05-17T22:05:43.880Z,93444.78
2019-05-17T22:08:10.420Z,93445.13
2019-05-17T22:10:36.966Z,93449.95
2019-05-17T22:13:03.609Z,93447.73
2019-05-17T22:15:30.130Z,93451.58
2019-05-17T22:17:56.664Z,93450.12
2019-05-17T22:20:23.186Z,93450.48
2019-05-17T22:22:49.835Z,93456.92
2019-05-17T22:25:16.375Z,93451.22
2019-05-17T22:27:42.908Z,93451.50
2019-05-17T22:30:09.713Z,93453.36
2019-05-17T22:32:36.205Z,93455.38
2019-05-17T22:35:04.555Z,93460.13
2019-05-17T22:37:31.084Z,93457.38
2019-05-17T22:39:57.622Z,93456.92
2019-05-17T22:42:25.169Z,93452.77
2019-05-17T22:44:51.710Z,93456.64
2019-05-17T22:47:18.357Z,93450.23
2019-05-17T22:49:44.891Z,93448.97
2019-05-17T22:52:11.414Z,93450.41
2019-05-17T22:54:38.993Z,93452.59
2019-05-17T22:57:05.533Z,93444.67
2019-05-17T22:59:32.189Z,93447.63
2019-05-17T23:01:58.752Z,93448.75
2019-05-17T23:04:25.281Z,93449.00
2019-05-17T23:06:51.807Z,93446.95
2019-05-17T23:09:18.426Z,93446.84
2019-05-17T23:11:45.053Z,93447.23
2019-05-17T23:14:11.546Z,93458.86
2019-05-17T23:16:50.499Z,93452.55
2019-05-17T23:19:08.451Z,93457.98
2019-05-17T23:21:35.369Z,93451.54
2019-05-17T23:24:02.325Z,93444.03
2019-05-17T23:26:28.939Z,93446.53
2019-05-17T23:28:55.474Z,93453.77
2019-05-17T23:31:23.101Z,93451.00
2019-05-17T23:33:49.630Z,93456.34
2019-05-17T23:36:16.160Z,93457.99
2019-05-17T23:38:42.749Z,93456.08
2019-05-17T23:41:09.292Z,93459.91
2019-05-17T23:43:35.816Z,93456.33
2019-05-17T23:46:02.448Z,93453.95
2019-05-17T23:48:28.975Z,93459.39
2019-05-17T23:50:55.512Z,93460.21
2019-05-17T23:53:22.068Z,93457.78
2019-05-17T23:55:48.618Z,93453.09
2019-05-17T23:58:17.182Z,93454.76
